Time;durP1;ratioP1;P1;durP2;ratioP2;P2;SDS_P1;SDS_P2;PMS_P1;PMS_P2;Temp;Humidity;BMP_temperature;BMP_pressure;BME280_temperature;BME280_humidity;BME280_pressure;Samples;Min_cycle;Max_cycle;Signal;HPM_P1;HPM_P2
2022/11/13 00:00:18;;;;;;;39.67;31.43;;;9.70;99.90;;;;;;4971738;28;20191;-67
2022/11/13 00:02:44;;;;;;;38.63;31.33;;;9.70;99.90;;;;;;4972190;28;20176;-68
2022/11/13 00:05:12;;;;;;;43.87;33.00;;;9.70;99.90;;;;;;4972131;28;20596;-68
2022/11/13 00:07:38;;;;;;;43.57;33.00;;;9.70;99.90;;;;;;4982192;28;20223;-68
2022/11/13 00:10:04;;;;;;;43.33;34.67;;;9.70;99.90;;;;;;4993470;28;20237;-68
2022/11/13 00:12:29;;;;;;;40.17;31.13;;;9.70;99.90;;;;;;4993592;28;20190;-68
2022/11/13 00:14:55;;;;;;;41.40;32.93;;;9.50;99.90;;;;;;4991930;28;20179;-68
2022/11/13 00:17:21;;;;;;;44.07;34.60;;;9.40;99.90;;;;;;4993645;28;20202;-68
2022/11/13 00:19:46;;;;;;;43.47;34.87;;;9.40;99.90;;;;;;4992205;28;20544;-68
2022/11/13 00:22:12;;;;;;;44.07;33.03;;;9.40;99.90;;;;;;4993532;28;20183;-68
2022/11/13 00:24:37;;;;;;;53.93;37.33;;;9.40;99.90;;;;;;4992131;28;20175;-68
2022/11/13 00:27:03;;;;;;;46.13;35.37;;;9.50;99.90;;;;;;4992345;28;20205;-68
2022/11/13 00:29:28;;;;;;;41.27;32.77;;;9.50;99.90;;;;;;4992967;28;20249;-68
2022/11/13 00:31:54;;;;;;;41.03;33.70;;;9.50;99.90;;;;;;4993429;28;20207;-68
2022/11/13 00:34:19;;;;;;;43.20;35.07;;;9.50;99.90;;;;;;4993445;28;20580;-68
2022/11/13 00:36:48;;;;;;;41.93;34.37;;;9.50;99.90;;;;;;4995882;28;20175;-68
2022/11/13 00:39:13;;;;;;;45.60;34.60;;;9.40;99.90;;;;;;4996950;28;20705;-68
2022/11/13 00:41:39;;;;;;;42.73;35.50;;;9.30;99.90;;;;;;4996193;28;20191;-68
2022/11/13 00:44:05;;;;;;;47.73;36.63;;;9.30;99.90;;;;;;4996545;28;20218;-67
2022/11/13 00:46:34;;;;;;;40.63;32.13;;;9.30;99.90;;;;;;4997127;28;20229;-68
2022/11/13 00:48:59;;;;;;;44.50;35.47;;;9.20;99.90;;;;;;4995781;28;20215;-68
2022/11/13 00:51:25;;;;;;;36.97;30.23;;;9.10;99.90;;;;;;4997028;28;20694;-67
2022/11/13 00:53:51;;;;;;;39.53;32.77;;;9.00;99.90;;;;;;4996957;28;20529;-67
2022/11/13 00:56:16;;;;;;;40.13;31.57;;;9.00;99.90;;;;;;4996922;28;20246;-67
2022/11/13 00:58:44;;;;;;;40.13;31.73;;;9.00;99.90;;;;;;4996306;28;20650;-67
2022/11/13 01:01:15;;;;;;;39.47;31.27;;;9.00;99.90;;;;;;4996922;28;20218;-69
2022/11/13 01:03:42;;;;;;;39.20;30.53;;;8.90;99.90;;;;;;4996786;28;20705;-68
2022/11/13 01:06:20;;;;;;;41.17;31.10;;;8.90;99.90;;;;;;4996694;28;20173;-67
2022/11/13 01:08:46;;;;;;;39.47;31.10;;;8.80;99.90;;;;;;4996616;28;20242;-68
2022/11/13 01:11:21;;;;;;;38.43;31.37;;;8.80;99.90;;;;;;4996669;28;20198;-69
2022/11/13 01:13:48;;;;;;;43.23;33.50;;;8.80;99.90;;;;;;4996431;28;20167;-68
2022/11/13 01:16:15;;;;;;;40.60;32.43;;;8.80;99.90;;;;;;4996520;28;20175;-69
2022/11/13 01:18:41;;;;;;;40.07;31.70;;;8.80;99.90;;;;;;4996381;28;20643;-67
2022/11/13 01:21:10;;;;;;;35.63;30.37;;;8.70;99.90;;;;;;4996676;28;20179;-68
2022/11/13 01:23:36;;;;;;;37.83;29.80;;;8.70;99.90;;;;;;4996138;28;20701;-69
2022/11/13 01:26:18;;;;;;;39.40;30.00;;;8.80;99.90;;;;;;4996427;28;20262;-67
2022/11/13 01:28:44;;;;;;;40.73;30.00;;;8.80;99.90;;;;;;4996289;28;20214;-67
2022/11/13 01:31:14;;;;;;;37.93;29.83;;;8.80;99.90;;;;;;4996295;28;20246;-67
2022/11/13 01:33:39;;;;;;;38.20;31.00;;;8.90;99.90;;;;;;4995784;28;20255;-68
2022/11/13 01:36:13;;;;;;;37.27;31.03;;;8.90;99.90;;;;;;4996090;28;20254;-68
2022/11/13 01:38:38;;;;;;;34.00;28.87;;;9.00;99.90;;;;;;4996241;28;20180;-67
2022/11/13 01:41:05;;;;;;;35.07;29.10;;;8.80;99.90;;;;;;4995882;28;20176;-67
2022/11/13 01:43:34;;;;;;;36.80;29.83;;;8.70;99.90;;;;;;4995953;28;20183;-68
2022/11/13 01:46:07;;;;;;;35.87;28.13;;;8.70;99.90;;;;;;4995328;28;20643;-68
2022/11/13 01:48:41;;;;;;;36.50;29.47;;;8.60;99.90;;;;;;4995587;28;20217;-67
2022/11/13 01:51:26;;;;;;;36.13;29.73;;;8.70;99.90;;;;;;4996187;28;20167;-68
2022/11/13 01:53:52;;;;;;;36.37;29.20;;;8.60;99.90;;;;;;4995904;28;20237;-67
2022/11/13 01:56:18;;;;;;;36.57;30.07;;;8.60;99.90;;;;;;4995545;28;20171;-67
2022/11/13 01:58:51;;;;;;;37.07;29.33;;;8.60;99.90;;;;;;4995568;28;20175;-68
2022/11/13 02:01:17;;;;;;;37.57;29.33;;;8.50;99.90;;;;;;4994377;28;20175;-67
2022/11/13 02:03:43;;;;;;;37.50;29.63;;;8.50;99.90;;;;;;4995604;28;20204;-68
2022/11/13 02:06:08;;;;;;;35.97;28.77;;;8.50;99.90;;;;;;4995628;28;20205;-68
2022/11/13 02:08:34;;;;;;;36.10;29.37;;;8.60;99.90;;;;;;4995355;28;20347;-67
2022/11/13 02:11:00;;;;;;;39.30;31.03;;;8.70;99.90;;;;;;4995113;28;20167;-68
2022/11/13 02:13:26;;;;;;;43.73;32.10;;;8.80;99.90;;;;;;4995358;28;20172;-68
2022/11/13 02:15:52;;;;;;;40.37;31.80;;;8.70;99.90;;;;;;4995277;28;20177;-68
2022/11/13 02:18:23;;;;;;;37.00;30.53;;;8.70;99.90;;;;;;4995519;28;20646;-68
2022/11/13 02:20:52;;;;;;;40.03;30.87;;;8.60;99.90;;;;;;4995749;28;20163;-68
2022/11/13 02:23:42;;;;;;;38.13;30.87;;;8.60;99.90;;;;;;4995062;28;20215;-67
2022/11/13 02:26:09;;;;;;;71.83;50.13;;;8.60;99.90;;;;;;4994716;28;20171;-68
2022/11/13 02:28:35;;;;;;;41.77;30.77;;;8.60;99.90;;;;;;4995008;28;20612;-68
2022/11/13 02:31:13;;;;;;;44.13;34.03;;;8.70;99.90;;;;;;4993897;28;20635;-69
2022/11/13 02:33:39;;;;;;;49.83;37.97;;;8.70;99.90;;;;;;4994762;28;20174;-68
2022/11/13 02:36:07;;;;;;;65.23;49.13;;;8.70;99.90;;;;;;4995119;28;20179;-68
2022/11/13 02:38:35;;;;;;;134.03;94.37;;;8.60;99.90;;;;;;4994417;28;20205;-67
2022/11/13 02:41:01;;;;;;;39.60;30.77;;;8.60;99.90;;;;;;4994589;28;20174;-68
2022/11/13 02:43:27;;;;;;;36.87;29.00;;;8.60;99.90;;;;;;4994861;28;20175;-68
2022/11/13 02:45:53;;;;;;;38.00;28.87;;;8.50;99.90;;;;;;4994805;28;20178;-67
2022/11/13 02:48:18;;;;;;;37.97;29.27;;;8.60;99.90;;;;;;4994647;28;20262;-67
2022/11/13 02:50:44;;;;;;;39.87;31.53;;;8.40;99.90;;;;;;4994905;28;20203;-68
2022/11/13 02:53:13;;;;;;;34.23;27.93;;;8.30;99.90;;;;;;4994629;28;20183;-67
2022/11/13 02:55:38;;;;;;;38.13;28.67;;;8.20;99.90;;;;;;4994696;28;20175;-68
2022/11/13 02:58:04;;;;;;;33.67;27.53;;;8.20;99.90;;;;;;4994471;28;20179;-67
2022/11/13 03:00:30;;;;;;;34.03;27.87;;;8.10;99.90;;;;;;4994475;28;20254;-68
2022/11/13 03:02:55;;;;;;;32.23;27.20;;;8.10;99.90;;;;;;4994837;28;20199;-69
2022/11/13 03:05:22;;;;;;;34.60;27.17;;;8.00;99.90;;;;;;4994725;28;20670;-69
2022/11/13 03:07:47;;;;;;;33.83;27.23;;;8.00;99.90;;;;;;4993883;28;20219;-69
2022/11/13 03:10:13;;;;;;;34.63;27.33;;;8.00;99.90;;;;;;4994382;28;20167;-69
2022/11/13 03:12:39;;;;;;;33.93;28.40;;;8.10;99.90;;;;;;4994443;28;20172;-69
2022/11/13 03:15:07;;;;;;;36.30;29.70;;;8.10;99.90;;;;;;4994330;28;20175;-68
2022/11/13 03:17:36;;;;;;;57.73;46.87;;;8.10;99.90;;;;;;4994279;28;20179;-68
2022/11/13 03:20:02;;;;;;;44.43;34.53;;;8.10;99.90;;;;;;4994088;28;20194;-68
2022/11/13 03:22:30;;;;;;;37.77;30.90;;;8.10;99.90;;;;;;4993812;28;20202;-68
2022/11/13 03:24:56;;;;;;;38.90;31.37;;;8.10;99.90;;;;;;4993775;28;20635;-68
2022/11/13 03:27:21;;;;;;;47.23;37.57;;;8.20;99.90;;;;;;4994038;28;20211;-68
2022/11/13 03:29:50;;;;;;;39.60;33.20;;;8.20;99.90;;;;;;4994172;28;20199;-69
2022/11/13 03:32:16;;;;;;;53.43;34.50;;;8.40;99.90;;;;;;4994192;28;20178;-69
2022/11/13 03:34:41;;;;;;;58.47;37.87;;;8.40;99.90;;;;;;4993786;28;20219;-69
2022/11/13 03:37:07;;;;;;;76.63;52.53;;;8.40;99.90;;;;;;4993656;28;20600;-68
2022/11/13 03:39:33;;;;;;;39.33;31.77;;;8.40;99.90;;;;;;4993908;28;20697;-68
2022/11/13 03:41:58;;;;;;;48.43;34.57;;;8.30;99.90;;;;;;4992580;28;20257;-69
2022/11/13 03:44:24;;;;;;;42.63;33.23;;;8.30;99.90;;;;;;4992704;28;20547;-69
2022/11/13 03:46:49;;;;;;;42.17;33.37;;;8.40;99.90;;;;;;4992762;28;20253;-68
2022/11/13 03:49:15;;;;;;;41.57;33.30;;;8.50;99.90;;;;;;4993758;28;20202;-67
2022/11/13 03:52:01;;;;;;;44.73;33.60;;;8.60;99.90;;;;;;4993609;28;20650;-68
2022/11/13 03:54:27;;;;;;;43.57;33.67;;;8.70;99.90;;;;;;4993471;28;20558;-68
2022/11/13 03:56:52;;;;;;;43.57;34.57;;;8.60;99.90;;;;;;4993725;28;20175;-68
2022/11/13 03:59:21;;;;;;;42.30;32.30;;;8.60;99.90;;;;;;4993531;28;20179;-68
2022/11/13 04:01:46;;;;;;;43.17;30.27;;;8.60;99.90;;;;;;4993705;28;20238;-68
2022/11/13 04:04:12;;;;;;;43.37;31.70;;;8.60;99.90;;;;;;4992132;28;20595;-69
2022/11/13 04:06:38;;;;;;;43.30;31.90;;;8.70;99.90;;;;;;4992146;28;20580;-67
2022/11/13 04:09:03;;;;;;;38.40;30.10;;;8.80;99.90;;;;;;4993570;28;20301;-68
2022/11/13 04:11:29;;;;;;;35.40;28.03;;;8.80;99.90;;;;;;4997363;28;20168;-69
2022/11/13 04:14:01;;;;;;;32.23;26.33;;;8.70;99.90;;;;;;4997697;28;20182;-68
2022/11/13 04:16:27;;;;;;;32.77;26.67;;;8.60;99.90;;;;;;4997739;28;20559;-69
2022/11/13 04:18:53;;;;;;;33.77;25.67;;;8.60;99.90;;;;;;4995859;28;20236;-69
2022/11/13 04:21:18;;;;;;;31.13;25.33;;;8.70;99.90;;;;;;4997280;28;20176;-69
2022/11/13 04:23:44;;;;;;;31.60;24.53;;;8.60;99.90;;;;;;4997481;28;20179;-69
2022/11/13 04:26:10;;;;;;;30.50;23.20;;;8.60;99.90;;;;;;4997380;28;20258;-68
2022/11/13 04:28:35;;;;;;;33.33;25.77;;;8.60;99.90;;;;;;4997270;28;20675;-68
2022/11/13 04:31:04;;;;;;;31.50;24.03;;;8.50;99.90;;;;;;4997036;28;20187;-68
2022/11/13 04:33:32;;;;;;;31.17;24.53;;;8.50;99.90;;;;;;4997246;28;20179;-67
2022/11/13 04:35:58;;;;;;;35.00;26.20;;;8.50;99.90;;;;;;4996854;28;20199;-69
2022/11/13 04:38:23;;;;;;;31.97;25.03;;;8.60;99.90;;;;;;4997153;28;20571;-69
2022/11/13 04:42:47;;;;;;;39.37;26.13;;;8.60;99.90;;;;;;4997019;28;20163;-69
2022/11/13 04:43:35;;;;;;;34.80;25.23;;;8.50;99.90;;;;;;4996727;28;20186;-68
2022/11/13 04:46:01;;;;;;;30.47;24.37;;;8.40;99.90;;;;;;4997005;28;20262;-68
2022/11/13 04:48:26;;;;;;;31.83;24.77;;;8.20;99.90;;;;;;4996968;28;20556;-69
2022/11/13 04:50:52;;;;;;;29.60;24.37;;;8.20;99.90;;;;;;4995354;28;20171;-69
2022/11/13 04:53:17;;;;;;;29.83;24.40;;;8.10;99.90;;;;;;4996889;28;20258;-69
2022/11/13 04:55:46;;;;;;;29.93;24.53;;;8.10;99.90;;;;;;4996589;28;20234;-69
2022/11/13 04:58:11;;;;;;;31.57;25.03;;;8.00;99.90;;;;;;4996401;28;20179;-69
2022/11/13 05:00:37;;;;;;;30.93;24.87;;;8.00;99.90;;;;;;4997015;28;20171;-68
2022/11/13 05:03:03;;;;;;;33.77;25.60;;;8.00;99.90;;;;;;4995497;28;20179;-68
2022/11/13 05:05:28;;;;;;;31.53;24.87;;;7.90;99.90;;;;;;4996332;28;20650;-68
2022/11/13 05:07:56;;;;;;;29.07;24.97;;;7.90;99.90;;;;;;4996559;28;20575;-68
2022/11/13 05:10:22;;;;;;;33.10;25.87;;;7.90;99.90;;;;;;4996247;28;20175;-69
2022/11/13 05:12:48;;;;;;;30.23;24.50;;;7.80;99.90;;;;;;4996369;28;20180;-69
2022/11/13 05:15:13;;;;;;;30.67;24.20;;;7.80;99.90;;;;;;4996592;28;20554;-68
2022/11/13 05:17:39;;;;;;;34.27;27.37;;;7.90;99.90;;;;;;4996492;28;20537;-68
2022/11/13 05:20:05;;;;;;;33.20;26.80;;;7.90;99.90;;;;;;4996190;28;20171;-68
2022/11/13 05:22:30;;;;;;;34.77;27.03;;;7.90;99.90;;;;;;4994956;28;20180;-69
2022/11/13 05:24:56;;;;;;;33.93;26.00;;;7.90;99.90;;;;;;4996207;28;20186;-69
2022/11/13 05:27:24;;;;;;;31.90;26.53;;;7.70;99.90;;;;;;4996000;28;20214;-69
2022/11/13 05:29:52;;;;;;;34.27;25.83;;;7.60;99.90;;;;;;4996355;28;20593;-69
2022/11/13 05:32:18;;;;;;;31.87;25.93;;;7.60;99.90;;;;;;4995938;28;20279;-68
2022/11/13 05:34:43;;;;;;;31.50;25.10;;;7.60;99.90;;;;;;4995646;28;20761;-68
2022/11/13 05:37:09;;;;;;;30.27;23.90;;;7.50;99.90;;;;;;4996400;28;20175;-69
2022/11/13 05:39:34;;;;;;;33.37;26.83;;;7.50;99.90;;;;;;4994772;28;20168;-69
2022/11/13 05:42:00;;;;;;;31.30;26.93;;;7.60;99.90;;;;;;4995767;28;20175;-69
2022/11/13 05:44:25;;;;;;;30.07;24.47;;;7.60;99.90;;;;;;4996013;28;20172;-68
2022/11/13 05:46:51;;;;;;;30.90;25.83;;;7.40;99.90;;;;;;4995781;28;20269;-68
2022/11/13 05:49:17;;;;;;;32.00;25.63;;;7.30;99.90;;;;;;4995307;28;20476;-69
2022/11/13 05:51:42;;;;;;;30.53;23.77;;;7.30;99.90;;;;;;4995923;28;20176;-68
2022/11/13 05:54:08;;;;;;;29.47;24.80;;;7.30;99.90;;;;;;4995550;28;20211;-68
2022/11/13 05:56:35;;;;;;;32.77;26.10;;;7.30;99.90;;;;;;4995603;28;20168;-68
2022/11/13 05:59:02;;;;;;;32.90;24.87;;;7.20;99.90;;;;;;4995537;28;20669;-68
2022/11/13 06:01:45;;;;;;;29.77;24.00;;;7.20;99.90;;;;;;4994544;28;20172;-68
2022/11/13 06:04:11;;;;;;;30.30;23.70;;;7.10;99.90;;;;;;4994278;28;20199;-69
2022/11/13 06:06:40;;;;;;;31.03;24.10;;;7.10;99.90;;;;;;4995703;28;20651;-69
2022/11/13 06:09:06;;;;;;;32.33;24.83;;;7.00;99.90;;;;;;4993829;28;20219;-69
2022/11/13 06:11:32;;;;;;;31.03;23.63;;;6.90;99.90;;;;;;4995624;28;20186;-68
2022/11/13 06:13:58;;;;;;;29.60;24.63;;;6.90;99.90;;;;;;4994917;28;20647;-68
2022/11/13 06:16:32;;;;;;;31.17;23.83;;;6.90;99.90;;;;;;4995147;28;20261;-68
2022/11/13 06:19:00;;;;;;;32.67;24.90;;;6.90;99.90;;;;;;4995121;28;20246;-69
2022/11/13 06:21:28;;;;;;;29.80;24.60;;;6.80;99.90;;;;;;4995226;28;20262;-69
2022/11/13 06:23:59;;;;;;;32.53;24.50;;;6.80;99.90;;;;;;4994973;28;20255;-69
2022/11/13 06:26:30;;;;;;;32.33;25.00;;;6.80;99.90;;;;;;4995292;28;20203;-69
2022/11/13 06:28:57;;;;;;;33.97;24.93;;;6.70;99.90;;;;;;4994867;28;20260;-67
2022/11/13 06:31:28;;;;;;;29.90;24.47;;;6.70;99.90;;;;;;4994705;28;20167;-69
2022/11/13 06:33:55;;;;;;;30.80;24.20;;;6.70;99.90;;;;;;4994426;28;20218;-69
2022/11/13 06:36:27;;;;;;;32.30;23.97;;;6.70;99.90;;;;;;4995009;28;20175;-68
2022/11/13 06:38:52;;;;;;;29.57;24.03;;;6.70;99.90;;;;;;4995024;28;20225;-68
2022/11/13 06:41:28;;;;;;;29.40;23.50;;;6.70;99.90;;;;;;4995091;28;20250;-69
2022/11/13 06:43:54;;;;;;;29.00;23.13;;;6.60;99.90;;;;;;4994866;28;20174;-69
2022/11/13 06:46:24;;;;;;;28.47;23.43;;;6.50;99.90;;;;;;4994153;28;20176;-68
2022/11/13 06:48:50;;;;;;;30.10;23.17;;;6.50;99.90;;;;;;4994575;28;20211;-67
2022/11/13 06:51:22;;;;;;;28.27;22.93;;;6.50;99.90;;;;;;4994731;28;20199;-69
2022/11/13 06:53:48;;;;;;;29.30;23.07;;;6.40;99.90;;;;;;4994239;28;20175;-69
2022/11/13 06:56:14;;;;;;;31.27;23.17;;;6.50;99.90;;;;;;4994760;28;20195;-68
2022/11/13 06:58:40;;;;;;;28.23;22.47;;;6.50;99.90;;;;;;4994398;28;20261;-69
2022/11/13 07:01:08;;;;;;;26.53;22.50;;;6.50;99.90;;;;;;4994022;28;20171;-69
2022/11/13 07:03:37;;;;;;;26.37;22.80;;;6.50;99.90;;;;;;4994566;28;20202;-68
2022/11/13 07:06:05;;;;;;;29.30;23.53;;;6.50;99.90;;;;;;4994736;28;20627;-68
2022/11/13 07:08:31;;;;;;;29.63;22.50;;;6.50;99.90;;;;;;4994020;28;20249;-67
2022/11/13 07:10:57;;;;;;;27.60;23.23;;;6.50;99.90;;;;;;4994229;28;20647;-68
2022/11/13 07:13:24;;;;;;;28.23;23.63;;;6.50;99.90;;;;;;4993923;28;20662;-69
2022/11/13 07:15:50;;;;;;;28.33;22.57;;;6.50;99.90;;;;;;4993936;28;20175;-69
2022/11/13 07:18:16;;;;;;;30.23;22.53;;;6.50;99.90;;;;;;4994258;28;20171;-68
2022/11/13 07:20:41;;;;;;;26.00;21.40;;;6.50;99.90;;;;;;4994128;28;20176;-68
2022/11/13 07:23:07;;;;;;;27.53;21.40;;;6.60;99.90;;;;;;4994075;28;20171;-69
2022/11/13 07:25:33;;;;;;;26.77;21.37;;;6.70;99.90;;;;;;4993846;28;20217;-68
2022/11/13 07:27:59;;;;;;;26.13;21.53;;;7.00;99.90;;;;;;4992441;28;20215;-68
2022/11/13 07:30:25;;;;;;;22.40;19.90;;;7.60;99.90;;;;;;4993674;28;20700;-70
2022/11/13 07:32:51;;;;;;;21.83;17.00;;;8.40;99.90;;;;;;4992600;28;20623;-69
2022/11/13 07:35:16;;;;;;;18.37;16.07;;;9.40;99.90;;;;;;4993571;28;20230;-69
2022/11/13 07:37:42;;;;;;;17.63;15.70;;;10.20;99.90;;;;;;4993739;28;20180;-70
2022/11/13 07:40:09;;;;;;;17.37;14.53;;;10.90;99.90;;;;;;4993917;28;20183;-70
2022/11/13 07:42:39;;;;;;;18.83;14.67;;;11.60;99.90;;;;;;4993755;28;20186;-70
2022/11/13 07:45:06;;;;;;;16.10;14.50;;;12.40;99.90;;;;;;4992589;28;20179;-69
2022/11/13 07:47:31;;;;;;;15.57;13.30;;;12.90;99.90;;;;;;4992082;28;20206;-69
2022/11/13 07:49:57;;;;;;;15.33;13.47;;;13.70;99.90;;;;;;4993357;28;20186;-69
2022/11/13 07:52:22;;;;;;;15.97;13.00;;;14.60;99.90;;;;;;4993386;28;20181;-69
2022/11/13 07:54:48;;;;;;;14.20;12.67;;;15.20;99.90;;;;;;4993474;28;20258;-69
2022/11/13 07:57:14;;;;;;;14.83;12.13;;;15.90;99.90;;;;;;4993420;28;20237;-70
2022/11/13 07:59:39;;;;;;;12.73;11.07;;;16.50;99.90;;;;;;4991834;28;20277;-71
2022/11/13 08:02:05;;;;;;;12.50;11.23;;;16.90;99.90;;;;;;4993444;28;20175;-71
2022/11/13 08:04:31;;;;;;;12.45;11.20;;;17.20;99.00;;;;;;4993650;28;20179;-72
2022/11/13 08:06:57;;;;;;;12.88;11.38;;;17.60;97.30;;;;;;4993289;28;20221;-71
2022/11/13 08:09:22;;;;;;;11.98;10.63;;;17.30;97.30;;;;;;4991870;28;20207;-71
2022/11/13 08:11:48;;;;;;;11.48;10.38;;;17.20;97.00;;;;;;4991979;28;20190;-69
2022/11/13 08:14:17;;;;;;;12.50;11.20;;;16.70;97.00;;;;;;4991188;28;20227;-69
2022/11/13 08:16:42;;;;;;;13.77;12.40;;;16.20;97.70;;;;;;4993540;28;20175;-68
2022/11/13 08:19:08;;;;;;;13.60;12.17;;;15.40;98.90;;;;;;4993265;28;20174;-69
2022/11/13 08:21:34;;;;;;;14.63;12.57;;;14.50;99.90;;;;;;4993389;28;20536;-69
2022/11/13 08:24:00;;;;;;;14.10;12.60;;;13.80;99.90;;;;;;4992846;28;20636;-68
2022/11/13 08:26:26;;;;;;;13.37;11.97;;;13.40;99.90;;;;;;4993009;28;20194;-68
2022/11/13 08:28:51;;;;;;;13.37;11.97;;;13.00;99.90;;;;;;4992493;28;20227;-69
2022/11/13 08:31:17;;;;;;;15.33;12.67;;;13.30;99.90;;;;;;4993450;28;20175;-68
2022/11/13 08:33:43;;;;;;;16.33;12.80;;;13.70;99.90;;;;;;4992826;28;20214;-69
2022/11/13 08:36:09;;;;;;;13.97;11.47;;;14.30;99.90;;;;;;4993353;28;20530;-69
2022/11/13 08:38:35;;;;;;;17.43;13.30;;;14.60;99.90;;;;;;4992892;28;20167;-69
2022/11/13 08:41:07;;;;;;;16.07;12.47;;;14.70;99.90;;;;;;4993356;28;20210;-69
2022/11/13 08:43:33;;;;;;;17.67;13.13;;;14.60;99.90;;;;;;4992817;28;20277;-70
2022/11/13 08:46:01;;;;;;;14.57;12.60;;;14.50;99.90;;;;;;4991448;28;20183;-68
2022/11/13 08:48:27;;;;;;;15.10;13.53;;;14.50;99.90;;;;;;4992773;28;20214;-68
2022/11/13 08:50:54;;;;;;;15.27;12.20;;;14.30;99.90;;;;;;4992987;28;20230;-69
2022/11/13 08:53:21;;;;;;;16.93;12.10;;;14.60;99.90;;;;;;4993231;28;20179;-69
2022/11/13 08:55:47;;;;;;;14.27;12.30;;;15.40;99.90;;;;;;4993151;28;20179;-71
2022/11/13 08:58:13;;;;;;;14.37;12.13;;;16.20;99.90;;;;;;4996211;28;20176;-70
2022/11/13 09:00:38;;;;;;;12.70;11.55;;;17.00;99.20;;;;;;4996148;28;20174;-70
2022/11/13 09:03:04;;;;;;;12.15;10.80;;;17.80;97.40;;;;;;4996010;28;20171;-68
2022/11/13 09:05:30;;;;;;;11.82;10.63;;;17.60;96.30;;;;;;4996727;28;20183;-69
2022/11/13 09:07:57;;;;;;;14.90;11.52;;;16.80;96.90;;;;;;4996208;28;20211;-69
2022/11/13 09:10:24;;;;;;;11.77;10.57;;;15.90;99.10;;;;;;4995831;28;20183;-69
2022/11/13 09:13:03;;;;;;;14.07;11.47;;;15.50;99.90;;;;;;4995889;28;20179;-68
2022/11/13 09:15:30;;;;;;;13.47;11.40;;;15.40;99.90;;;;;;4996406;28;20301;-68
2022/11/13 09:18:00;;;;;;;13.40;10.77;;;15.20;99.90;;;;;;4996300;28;20179;-68
2022/11/13 09:20:27;;;;;;;13.20;11.00;;;14.90;99.90;;;;;;4996297;28;20230;-68
2022/11/13 09:23:05;;;;;;;12.30;11.00;;;14.30;99.90;;;;;;4995318;28;20739;-69
2022/11/13 09:25:32;;;;;;;13.03;11.67;;;14.40;99.90;;;;;;4996031;28;20175;-69
2022/11/13 09:27:59;;;;;;;12.63;11.37;;;15.00;99.90;;;;;;4996144;28;20294;-69
2022/11/13 09:30:29;;;;;;;14.40;12.97;;;15.70;99.90;;;;;;4995971;28;20183;-70
2022/11/13 09:33:00;;;;;;;12.57;11.23;;;16.30;99.90;;;;;;4995438;28;20175;-71
2022/11/13 09:35:33;;;;;;;12.82;11.35;;;16.90;99.80;;;;;;4995650;28;20630;-71
2022/11/13 09:38:10;;;;;;;12.90;11.60;;;18.20;98.20;;;;;;4994740;28;20614;-71
2022/11/13 09:40:58;;;;;;;13.63;11.30;;;19.60;95.70;;;;;;4995342;28;20175;-71
2022/11/13 09:43:33;;;;;;;13.75;10.52;;;20.30;92.60;;;;;;4995561;28;20176;-69
2022/11/13 09:46:04;;;;;;;12.30;11.10;;;20.90;91.60;;;;;;4995649;28;20306;-70
2022/11/13 09:48:33;;;;;;;12.88;11.50;;;21.70;89.50;;;;;;4995614;28;20215;-71
2022/11/13 09:51:04;;;;;;;12.45;11.07;;;22.00;86.20;;;;;;4995573;28;20531;-72
2022/11/13 09:53:35;;;;;;;12.98;11.52;;;22.20;83.10;;;;;;4994939;28;20585;-71
2022/11/13 09:56:14;;;;;;;11.18;10.18;;;22.50;82.60;;;;;;4995243;28;20262;-72
2022/11/13 09:58:50;;;;;;;11.52;10.27;;;23.10;78.80;;;;;;4995284;28;20285;-71
2022/11/13 10:01:42;;;;;;;11.05;10.05;;;23.30;1.00;;;;;;4995280;28;20167;-72
2022/11/13 10:04:12;;;;;;;12.35;10.90;;;23.20;1.00;;;;;;4995462;28;20168;-71
2022/11/13 10:06:45;;;;;;;12.18;10.98;;;23.00;1.00;;;;;;4994890;28;20180;-72
2022/11/13 10:09:56;;;;;;;10.73;9.73;;;23.20;1.00;;;;;;4993891;28;20238;-73
2022/11/13 10:12:21;;;;;;;14.40;9.63;;;23.70;1.00;;;;;;4994773;28;20215;-72
2022/11/13 10:14:51;;;;;;;9.63;8.70;;;23.10;1.00;;;;;;4995207;28;20257;-72
2022/11/13 10:17:27;;;;;;;9.52;8.70;;;23.20;1.00;;;;;;4993427;28;20183;-73
2022/11/13 10:20:00;;;;;;;9.60;8.70;;;22.80;1.00;;;;;;4995017;28;20179;-72
2022/11/13 10:22:49;;;;;;;9.40;8.18;;;23.00;1.00;;;;;;4995053;28;20167;-71
2022/11/13 10:25:19;;;;;;;10.40;8.35;;;23.60;99.90;;;;;;4995027;28;20225;-72
2022/11/13 10:27:53;;;;;;;9.60;8.52;;;23.20;99.90;;;;;;4994433;28;20207;-71
2022/11/13 10:30:22;;;;;;;8.30;7.45;;;23.10;99.90;;;;;;4995050;28;20647;-71
2022/11/13 10:32:51;;;;;;;6.00;5.50;;;21.70;1.00;;;;;;4994671;28;20179;-71
2022/11/13 10:35:40;;;;;;;6.50;5.90;;;20.50;77.80;;;;;;4994080;28;20273;-72
2022/11/13 10:38:23;;;;;;;7.03;5.90;;;19.90;77.00;;;;;;4994313;28;20168;-71
2022/11/13 10:40:49;;;;;;;9.18;8.27;;;19.30;83.40;;;;;;4994857;28;20190;-72
2022/11/13 10:43:22;;;;;;;8.27;7.47;;;20.20;86.70;;;;;;4994736;28;20632;-71
2022/11/13 10:46:02;;;;;;;7.18;6.57;;;20.90;84.20;;;;;;4994386;28;20654;-71
2022/11/13 10:48:32;;;;;;;8.55;7.72;;;19.90;81.70;;;;;;4994017;28;20225;-71
2022/11/13 10:51:03;;;;;;;7.07;6.47;;;18.60;87.70;;;;;;4992799;28;20171;-71
2022/11/13 10:53:40;;;;;;;6.38;5.85;;;18.50;89.60;;;;;;4992653;28;20221;-71
2022/11/13 10:56:33;;;;;;;5.40;4.90;;;17.60;91.60;;;;;;4994238;28;20174;-71
2022/11/13 10:59:19;;;;;;;6.60;6.00;;;17.00;93.10;;;;;;4991313;28;20231;-71
2022/11/13 11:01:46;;;;;;;5.63;5.22;;;17.00;93.60;;;;;;4993691;28;20278;-71
2022/11/13 11:04:18;;;;;;;6.00;5.40;;;17.90;92.30;;;;;;4993998;28;20217;-71
2022/11/13 11:06:45;;;;;;;5.57;5.07;;;18.80;90.30;;;;;;4993493;28;20182;-71
2022/11/13 11:09:27;;;;;;;5.15;4.72;;;19.50;87.70;;;;;;4994013;28;20215;-71
2022/11/13 11:12:15;;;;;;;5.28;4.97;;;19.50;85.20;;;;;;4993792;28;20175;-71
2022/11/13 11:14:43;;;;;;;5.60;5.20;;;19.70;84.90;;;;;;4993492;28;20650;-70
2022/11/13 11:17:11;;;;;;;6.75;6.18;;;19.10;86.00;;;;;;4994001;28;20234;-71
2022/11/13 11:19:43;;;;;;;8.13;7.32;;;18.80;89.10;;;;;;4993841;28;20168;-70
2022/11/13 11:22:18;;;;;;;13.75;9.40;;;17.90;91.10;;;;;;4991906;28;20176;-70
2022/11/13 11:24:54;;;;;;;8.95;8.05;;;17.90;92.40;;;;;;4993751;28;20167;-70
2022/11/13 11:27:26;;;;;;;7.05;6.45;;;18.30;92.30;;;;;;4993762;28;20293;-71
2022/11/13 11:30:20;;;;;;;7.07;6.47;;;17.40;93.60;;;;;;4993804;28;20318;-70
2022/11/13 11:33:08;;;;;;;7.78;7.15;;;16.70;95.40;;;;;;4993617;28;20175;-70
2022/11/13 11:35:39;;;;;;;9.80;8.05;;;16.70;95.90;;;;;;4992865;28;20227;-70
2022/11/13 11:38:34;;;;;;;5.97;5.47;;;16.80;96.40;;;;;;4993511;28;20190;-69
2022/11/13 11:41:31;;;;;;;8.00;7.20;;;16.40;96.40;;;;;;4993666;28;20171;-69
2022/11/13 11:44:07;;;;;;;7.68;6.85;;;16.00;97.60;;;;;;4993103;28;20327;-68
2022/11/13 11:46:35;;;;;;;10.57;8.38;;;16.40;98.50;;;;;;4993046;28;20171;-69
2022/11/13 11:49:03;;;;;;;14.20;11.23;;;16.80;96.50;;;;;;4991950;28;20218;-70
2022/11/13 11:51:30;;;;;;;6.13;5.57;;;17.30;96.30;;;;;;4993109;28;20159;-69
2022/11/13 11:53:59;;;;;;;5.20;4.70;;;17.10;94.40;;;;;;4993558;28;20202;-70
2022/11/13 11:56:59;;;;;;;4.45;4.15;;;16.40;95.00;;;;;;4993063;28;20250;-68
2022/11/13 11:59:40;;;;;;;5.10;4.70;;;16.60;95.40;;;;;;4993166;28;20191;-69
2022/11/13 12:02:25;;;;;;;5.20;4.80;;;17.20;94.90;;;;;;4993350;28;20178;-70
2022/11/13 12:05:26;;;;;;;4.60;4.30;;;17.70;93.60;;;;;;4992670;28;20214;-68
2022/11/13 12:08:09;;;;;;;5.38;4.82;;;17.50;92.80;;;;;;4993021;28;20197;-69
2022/11/13 12:10:43;;;;;;;10.05;8.32;;;16.90;94.70;;;;;;4992765;28;20250;-69
2022/11/13 12:13:12;;;;;;;5.32;4.80;;;17.00;93.30;;;;;;4992807;28;20170;-69
2022/11/13 12:16:10;;;;;;;3.42;3.22;;;16.70;93.60;;;;;;4992958;28;20171;-68
2022/11/13 12:18:51;;;;;;;3.20;3.00;;;16.90;93.30;;;;;;4993547;28;20254;-69
2022/11/13 12:21:44;;;;;;;3.60;3.37;;;16.90;92.20;;;;;;4992756;28;20171;-69
2022/11/13 12:24:35;;;;;;;4.40;3.95;;;17.10;92.60;;;;;;4989335;28;20172;-69
2022/11/13 12:27:22;;;;;;;6.90;6.07;;;17.30;93.00;;;;;;4993153;28;20175;-69
2022/11/13 12:29:57;;;;;;;4.57;3.30;;;17.40;93.30;;;;;;4993012;28;20187;-68
2022/11/13 12:32:38;;;;;;;4.73;4.33;;;17.30;92.60;;;;;;4996763;28;20222;-68
2022/11/13 12:35:13;;;;;;;6.23;5.07;;;17.20;93.10;;;;;;4996112;28;20667;-70
2022/11/13 12:37:45;;;;;;;5.80;3.80;;;16.80;93.80;;;;;;4996996;28;20250;-69
2022/11/13 12:40:37;;;;;;;4.70;3.63;;;16.70;92.70;;;;;;4997010;28;20179;-69
2022/11/13 12:43:17;;;;;;;3.10;2.90;;;16.60;92.50;;;;;;4996275;28;20171;-67
2022/11/13 12:46:19;;;;;;;3.57;3.37;;;16.50;92.50;;;;;;4996681;28;20178;-68
2022/11/13 12:48:46;;;;;;;5.07;3.70;;;16.50;92.90;;;;;;4958281;28;20364;-68